Time;durP1;ratioP1;P1;durP2;ratioP2;P2;SDS_P1;SDS_P2;PMS_P1;PMS_P2;Temp;Humidity;BMP_temperature;BMP_pressure;BME280_temperature;BME280_humidity;BME280_pressure;Samples;Min_cycle;Max_cycle;Signal;HPM_P1;HPM_P2
2022/05/22 00:01:34;;;;;;;12.80;4.05;;;11.50;99.90;;;;;;5093633;28;20051;-67
2022/05/22 00:04:00;;;;;;;11.50;4.20;;;11.50;99.90;;;;;;5093515;28;20040;-67
2022/05/22 00:06:26;;;;;;;12.60;4.00;;;11.50;99.90;;;;;;5093304;28;20050;-67
2022/05/22 00:08:52;;;;;;;9.80;4.40;;;11.50;99.90;;;;;;5093216;28;20076;-67
2022/05/22 00:11:17;;;;;;;11.55;4.07;;;11.50;99.90;;;;;;5092271;28;20113;-67
2022/05/22 00:13:43;;;;;;;8.35;3.42;;;11.50;99.90;;;;;;5094063;28;20036;-67
2022/05/22 00:18:52;;;;;;;9.45;3.25;;;11.30;99.90;;;;;;5093208;28;20075;-67
2022/05/22 00:21:18;;;;;;;8.30;3.10;;;11.30;99.90;;;;;;5092558;28;20076;-67
2022/05/22 00:23:44;;;;;;;8.35;3.42;;;11.30;99.90;;;;;;5091948;28;20048;-67
2022/05/22 00:26:10;;;;;;;8.75;3.75;;;11.40;99.90;;;;;;5093253;28;20036;-67
2022/05/22 00:28:35;;;;;;;8.73;3.60;;;11.40;99.90;;;;;;5092841;28;20419;-67
2022/05/22 00:31:01;;;;;;;6.68;3.55;;;11.30;99.90;;;;;;5092991;28;20695;-67
2022/05/22 00:33:28;;;;;;;9.02;3.78;;;11.30;99.90;;;;;;5092694;28;20048;-67
2022/05/22 00:35:54;;;;;;;10.70;4.50;;;11.30;99.90;;;;;;5093018;28;20048;-67
2022/05/22 00:38:19;;;;;;;9.05;4.32;;;11.20;99.90;;;;;;5092933;28;20564;-67
2022/05/22 00:40:45;;;;;;;9.95;4.15;;;11.10;99.90;;;;;;5092643;28;20044;-67
2022/05/22 00:43:32;;;;;;;8.82;4.05;;;11.10;99.90;;;;;;5091476;28;20073;-67
2022/05/22 00:45:58;;;;;;;7.70;3.55;;;11.10;99.90;;;;;;5091559;28;20120;-66
2022/05/22 00:48:25;;;;;;;10.98;4.15;;;11.10;99.90;;;;;;5091225;28;20043;-66
2022/05/22 00:50:55;;;;;;;9.57;4.15;;;11.00;99.90;;;;;;5091234;28;20074;-67
2022/05/22 00:53:21;;;;;;;10.77;4.10;;;11.00;99.90;;;;;;5092591;28;20048;-67
2022/05/22 00:55:47;;;;;;;7.20;3.75;;;11.10;99.90;;;;;;5074392;28;20055;-67
2022/05/22 00:58:17;;;;;;;8.40;3.92;;;11.10;99.90;;;;;;5092419;28;20032;-67
2022/05/22 01:00:44;;;;;;;6.85;3.60;;;11.10;99.90;;;;;;5092030;28;20063;-67
2022/05/22 01:03:29;;;;;;;9.13;4.50;;;11.00;99.90;;;;;;5092619;28;20043;-67
2022/05/22 01:05:57;;;;;;;7.95;3.80;;;11.10;99.90;;;;;;5092310;28;20044;-67
2022/05/22 01:08:23;;;;;;;6.43;3.70;;;11.00;99.90;;;;;;5092268;28;20050;-67
2022/05/22 01:10:56;;;;;;;10.40;4.47;;;11.00;99.90;;;;;;5091956;28;20118;-67
2022/05/22 01:13:32;;;;;;;8.18;4.50;;;11.00;99.90;;;;;;5092388;28;20369;-67
2022/05/22 01:15:59;;;;;;;6.97;4.45;;;10.90;99.90;;;;;;5092225;28;20400;-66
2022/05/22 01:18:26;;;;;;;10.90;4.32;;;10.90;99.90;;;;;;5091968;28;20047;-67
2022/05/22 01:20:53;;;;;;;11.45;4.78;;;10.80;99.90;;;;;;5092053;28;20107;-67
2022/05/22 01:23:20;;;;;;;10.55;5.35;;;10.80;99.90;;;;;;5091974;28;20047;-67
2022/05/22 01:25:46;;;;;;;7.50;4.45;;;10.80;99.90;;;;;;5091781;28;20058;-67
2022/05/22 01:28:15;;;;;;;9.43;4.82;;;10.90;99.90;;;;;;5092055;28;20040;-66
2022/05/22 01:30:41;;;;;;;8.77;5.45;;;10.90;99.90;;;;;;5091568;28;20069;-67
2022/05/22 01:33:07;;;;;;;10.15;5.00;;;10.80;99.90;;;;;;5091585;28;20083;-67
2022/05/22 01:35:35;;;;;;;10.45;4.80;;;10.80;99.90;;;;;;5091759;28;20036;-67
2022/05/22 01:38:02;;;;;;;9.73;4.53;;;10.80;99.90;;;;;;5091623;28;20046;-67
2022/05/22 01:40:28;;;;;;;9.38;4.57;;;10.90;99.90;;;;;;5091563;28;20093;-67
2022/05/22 01:42:54;;;;;;;7.72;4.03;;;10.80;99.90;;;;;;5091814;28;20044;-67
2022/05/22 01:45:24;;;;;;;6.65;3.50;;;10.70;99.90;;;;;;5091710;28;20043;-67
2022/05/22 01:47:50;;;;;;;7.30;3.40;;;10.70;99.90;;;;;;5090500;28;20059;-67
2022/05/22 01:50:17;;;;;;;5.93;2.83;;;10.60;99.90;;;;;;5089891;28;20040;-67
2022/05/22 01:52:43;;;;;;;3.95;2.75;;;10.50;99.90;;;;;;5091265;28;20040;-67
2022/05/22 01:55:11;;;;;;;5.10;2.97;;;10.40;99.90;;;;;;5091618;28;20044;-67
2022/05/22 01:57:37;;;;;;;4.32;2.85;;;10.50;99.90;;;;;;5091545;28;20075;-67
2022/05/22 02:00:05;;;;;;;7.07;3.92;;;10.40;99.90;;;;;;5090924;28;20032;-67
2022/05/22 02:02:30;;;;;;;8.07;4.38;;;10.50;99.90;;;;;;5091394;28;20044;-67
2022/05/22 02:04:56;;;;;;;12.70;4.82;;;10.60;99.90;;;;;;5091226;28;20507;-67
2022/05/22 02:10:06;;;;;;;12.00;5.40;;;10.60;99.90;;;;;;5090998;28;20048;-66
2022/05/22 02:12:32;;;;;;;10.20;5.05;;;10.50;99.90;;;;;;5091192;28;20132;-67
2022/05/22 02:14:57;;;;;;;9.90;4.90;;;10.50;99.90;;;;;;5091051;28;20072;-67
2022/05/22 02:17:23;;;;;;;9.48;4.75;;;10.50;99.90;;;;;;5090952;28;20047;-67
2022/05/22 02:19:49;;;;;;;9.75;4.68;;;10.50;99.90;;;;;;5090543;28;20032;-67
2022/05/22 02:22:14;;;;;;;6.15;4.38;;;10.40;99.90;;;;;;5091126;28;20166;-67
2022/05/22 02:24:40;;;;;;;6.03;4.10;;;10.30;99.90;;;;;;5090977;28;20166;-67
2022/05/22 02:27:06;;;;;;;7.50;3.92;;;10.30;99.90;;;;;;5091037;28;20047;-66
2022/05/22 02:29:34;;;;;;;3.88;3.00;;;10.30;99.90;;;;;;5090614;28;20032;-67
2022/05/22 02:31:59;;;;;;;3.78;2.72;;;10.30;99.90;;;;;;5090939;28;20036;-67
2022/05/22 02:34:25;;;;;;;2.85;2.50;;;10.10;99.90;;;;;;5090583;28;20044;-66
2022/05/22 02:36:51;;;;;;;2.92;2.72;;;10.00;99.90;;;;;;5091021;28;20040;-67
2022/05/22 02:39:18;;;;;;;4.03;3.03;;;9.90;99.90;;;;;;5090579;28;20036;-67
2022/05/22 02:41:45;;;;;;;5.35;3.50;;;10.00;99.90;;;;;;5090947;28;20046;-67
2022/05/22 02:44:10;;;;;;;5.25;3.45;;;9.90;99.90;;;;;;5090891;28;20046;-67
2022/05/22 02:46:36;;;;;;;6.57;3.50;;;9.90;99.90;;;;;;5094941;28;20492;-67
2022/05/22 02:49:02;;;;;;;6.70;4.35;;;9.90;99.90;;;;;;5094408;28;20036;-67
2022/05/22 02:51:27;;;;;;;6.47;4.03;;;10.00;99.90;;;;;;5094918;28;20038;-67
2022/05/22 02:53:54;;;;;;;5.32;3.17;;;9.90;99.90;;;;;;5094875;28;20046;-67
2022/05/22 02:56:22;;;;;;;7.10;3.80;;;9.80;99.90;;;;;;5094931;28;20487;-67
2022/05/22 02:58:47;;;;;;;4.68;3.85;;;9.70;99.90;;;;;;5094527;28;20449;-67
2022/05/22 03:01:13;;;;;;;3.97;3.10;;;9.80;99.90;;;;;;5094548;28;20044;-67
2022/05/22 03:03:38;;;;;;;7.43;3.55;;;9.80;99.90;;;;;;5094594;28;20082;-67
2022/05/22 03:08:49;;;;;;;4.75;3.47;;;9.70;99.90;;;;;;5094501;28;20123;-67
2022/05/22 03:11:14;;;;;;;4.68;3.50;;;9.70;99.90;;;;;;5094535;28;20536;-67
2022/05/22 03:13:40;;;;;;;5.03;3.40;;;9.80;99.90;;;;;;5094438;28;20047;-67
2022/05/22 03:16:05;;;;;;;4.25;3.83;;;9.70;99.90;;;;;;5094327;28;20118;-67
2022/05/22 03:18:31;;;;;;;5.15;4.13;;;9.70;99.90;;;;;;5094338;28;20123;-67
2022/05/22 03:20:57;;;;;;;5.53;3.75;;;9.60;99.90;;;;;;5093320;28;20036;-67
2022/05/22 03:23:23;;;;;;;3.63;3.00;;;9.50;99.90;;;;;;5091305;28;20102;-66
2022/05/22 03:25:49;;;;;;;5.53;2.97;;;9.50;99.90;;;;;;5091005;28;20496;-66
2022/05/22 03:28:15;;;;;;;5.07;3.40;;;9.50;99.90;;;;;;5091467;28;20039;-67
2022/05/22 03:30:41;;;;;;;4.82;2.97;;;9.50;99.90;;;;;;5092624;28;20036;-67
2022/05/22 03:33:07;;;;;;;3.78;3.25;;;9.50;99.90;;;;;;5093729;28;20382;-67
2022/05/22 03:35:32;;;;;;;4.95;3.53;;;9.60;99.90;;;;;;5093559;28;20039;-67
2022/05/22 03:37:58;;;;;;;5.63;3.58;;;9.50;99.90;;;;;;5094144;28;20047;-67
2022/05/22 03:40:24;;;;;;;5.53;3.47;;;9.60;99.90;;;;;;5093692;28;20069;-66
2022/05/22 03:42:50;;;;;;;4.13;3.60;;;9.60;99.90;;;;;;5093820;28;20055;-67
2022/05/22 03:45:15;;;;;;;4.50;3.47;;;9.60;99.90;;;;;;5093768;28;20050;-67
2022/05/22 03:47:41;;;;;;;5.10;3.75;;;9.60;99.90;;;;;;5094023;28;20047;-67
2022/05/22 03:50:09;;;;;;;9.73;5.55;;;9.70;99.90;;;;;;5092112;28;20036;-67
2022/05/22 03:52:38;;;;;;;5.20;3.80;;;9.60;99.90;;;;;;5093807;28;20043;-66
2022/05/22 03:55:07;;;;;;;4.75;3.90;;;9.60;99.90;;;;;;5093821;28;20059;-67
2022/05/22 03:57:33;;;;;;;4.60;4.05;;;9.50;99.90;;;;;;5093492;28;20043;-67
2022/05/22 04:00:00;;;;;;;3.95;3.65;;;9.50;99.90;;;;;;5093095;28;20416;-67
2022/05/22 04:02:26;;;;;;;4.35;3.45;;;9.50;99.90;;;;;;5093682;28;20067;-67
2022/05/22 04:04:52;;;;;;;4.72;4.32;;;9.50;99.90;;;;;;5093531;28;20055;-67
2022/05/22 04:07:18;;;;;;;4.00;3.60;;;9.60;99.90;;;;;;5093536;28;20052;-66
2022/05/22 04:09:44;;;;;;;4.57;3.72;;;9.70;99.90;;;;;;5093048;28;20039;-67
2022/05/22 04:12:11;;;;;;;5.97;4.60;;;9.70;99.90;;;;;;5093243;28;20051;-67
2022/05/22 04:14:37;;;;;;;4.75;4.28;;;9.60;99.90;;;;;;5093217;28;20442;-67
2022/05/22 04:17:03;;;;;;;4.60;4.20;;;9.70;99.90;;;;;;5093207;28;20044;-67
2022/05/22 04:19:29;;;;;;;4.75;4.28;;;9.80;99.90;;;;;;5093011;28;20036;-67
2022/05/22 04:21:55;;;;;;;4.43;4.03;;;9.80;99.90;;;;;;5093134;28;20040;-67
2022/05/22 04:27:06;;;;;;;7.85;5.85;;;9.70;99.90;;;;;;5093263;28;20080;-67
2022/05/22 04:29:33;;;;;;;7.82;5.97;;;9.70;99.90;;;;;;5092841;28;20039;-67
2022/05/22 04:31:59;;;;;;;6.20;5.35;;;9.70;99.90;;;;;;5093169;28;20043;-67
2022/05/22 04:34:24;;;;;;;6.55;5.30;;;9.80;99.90;;;;;;5092933;28;20085;-67
2022/05/22 04:36:50;;;;;;;8.35;5.28;;;9.90;99.90;;;;;;5092922;28;20114;-67
2022/05/22 04:39:15;;;;;;;5.47;4.82;;;10.00;99.90;;;;;;5092442;28;20385;-67
2022/05/22 04:41:41;;;;;;;8.25;4.70;;;10.10;99.90;;;;;;5093027;28;20373;-67
2022/05/22 04:44:07;;;;;;;7.55;4.60;;;10.10;99.90;;;;;;5092919;28;20043;-67
2022/05/22 04:46:33;;;;;;;6.82;5.13;;;10.20;99.90;;;;;;5092870;28;20036;-67
2022/05/22 04:48:58;;;;;;;8.13;4.53;;;10.40;99.90;;;;;;5092476;28;20058;-67
2022/05/22 04:51:24;;;;;;;5.88;4.95;;;10.50;99.90;;;;;;5091319;28;20043;-67
2022/05/22 04:53:50;;;;;;;5.43;4.03;;;10.60;99.90;;;;;;5092440;28;20181;-67
2022/05/22 04:56:16;;;;;;;6.68;4.43;;;10.70;99.90;;;;;;5092661;28;20046;-67
2022/05/22 04:58:42;;;;;;;5.72;3.90;;;10.80;99.90;;;;;;5092226;28;20404;-67
2022/05/22 05:01:10;;;;;;;4.68;3.75;;;11.00;99.90;;;;;;5092205;28;20040;-67
2022/05/22 05:03:35;;;;;;;4.68;4.28;;;11.10;99.90;;;;;;5091346;28;20140;-67
2022/05/22 05:06:02;;;;;;;6.75;4.43;;;11.20;99.90;;;;;;5092373;28;20111;-67
2022/05/22 05:08:29;;;;;;;6.70;4.68;;;11.30;99.90;;;;;;5090145;28;20036;-67
2022/05/22 05:10:56;;;;;;;5.40;4.20;;;11.40;99.90;;;;;;5092319;28;20067;-67
2022/05/22 05:13:21;;;;;;;5.40;3.80;;;11.60;99.90;;;;;;5092329;28;20445;-67
2022/05/22 05:16:10;;;;;;;4.20;3.83;;;11.80;99.90;;;;;;5092245;28;20078;-67
2022/05/22 05:18:36;;;;;;;5.28;3.90;;;12.00;99.90;;;;;;5091859;28;20385;-67
2022/05/22 05:21:04;;;;;;;5.85;4.10;;;12.00;99.90;;;;;;5091760;28;20044;-67
2022/05/22 05:23:30;;;;;;;4.95;4.40;;;12.20;99.90;;;;;;5092154;28;20044;-67
2022/05/22 05:25:56;;;;;;;4.93;4.32;;;12.20;99.90;;;;;;5073643;28;20044;-67
2022/05/22 05:28:22;;;;;;;9.02;5.47;;;12.30;99.90;;;;;;5091924;28;20152;-67
2022/05/22 05:30:48;;;;;;;8.52;5.40;;;12.40;99.90;;;;;;5091682;28;20453;-67
2022/05/22 05:33:13;;;;;;;12.75;7.47;;;12.50;99.90;;;;;;5091665;28;20039;-67
2022/05/22 05:35:40;;;;;;;14.05;7.00;;;12.70;99.90;;;;;;5091602;28;20511;-67
2022/05/22 05:38:06;;;;;;;12.77;7.18;;;12.70;99.90;;;;;;5091856;28;20040;-67
2022/05/22 05:40:31;;;;;;;12.98;6.90;;;12.90;99.90;;;;;;5091259;28;20408;-67
2022/05/22 05:42:58;;;;;;;11.00;6.40;;;13.20;99.90;;;;;;5091775;28;20043;-67
2022/05/22 05:45:24;;;;;;;13.73;6.68;;;13.20;99.90;;;;;;5091557;28;20512;-67
2022/05/22 05:47:50;;;;;;;12.80;6.60;;;13.30;99.90;;;;;;5091550;28;20171;-67
2022/05/22 05:50:21;;;;;;;12.02;6.13;;;13.40;99.90;;;;;;5091012;28;20055;-67
2022/05/22 05:52:49;;;;;;;21.40;6.57;;;13.50;99.90;;;;;;5091590;28;20042;-67
2022/05/22 05:55:15;;;;;;;15.20;6.30;;;13.70;99.90;;;;;;5091475;28;20043;-67
2022/05/22 05:57:40;;;;;;;13.38;5.72;;;13.90;99.90;;;;;;5091399;28;20515;-67
2022/05/22 06:00:08;;;;;;;17.13;6.18;;;14.10;99.90;;;;;;5090968;28;20040;-67
2022/05/22 06:02:33;;;;;;;22.08;6.10;;;14.10;99.90;;;;;;5091701;28;20447;-67
2022/05/22 06:04:59;;;;;;;12.70;6.20;;;14.10;99.90;;;;;;5091136;28;20047;-67
2022/05/22 06:07:25;;;;;;;17.15;6.70;;;14.30;99.90;;;;;;5091405;28;20085;-67
2022/05/22 06:09:50;;;;;;;15.60;5.50;;;14.30;99.90;;;;;;5090920;28;20040;-67
2022/05/22 06:12:16;;;;;;;14.82;5.93;;;14.30;99.90;;;;;;5091158;28;20040;-68
2022/05/22 06:14:41;;;;;;;14.93;5.00;;;14.50;99.90;;;;;;5091108;28;20439;-68
2022/05/22 06:17:07;;;;;;;13.18;5.50;;;14.50;99.90;;;;;;5091106;28;20042;-67
2022/05/22 06:22:17;;;;;;;14.27;5.00;;;14.40;99.90;;;;;;5091154;28;20075;-68
2022/05/22 06:24:43;;;;;;;16.35;5.43;;;14.50;99.90;;;;;;5090999;28;20076;-67
2022/05/22 06:27:09;;;;;;;16.38;4.50;;;14.80;99.90;;;;;;5091060;28;20051;-67
2022/05/22 06:29:35;;;;;;;17.15;5.00;;;15.00;99.90;;;;;;5090522;28;20066;-68
2022/05/22 06:32:00;;;;;;;20.88;5.10;;;15.10;99.90;;;;;;5090804;28;20488;-68
2022/05/22 06:34:26;;;;;;;15.70;4.90;;;15.20;99.90;;;;;;5090930;28;20640;-68
2022/05/22 06:36:52;;;;;;;18.75;4.80;;;15.30;99.90;;;;;;5091102;28;20036;-67
2022/05/22 06:42:03;;;;;;;19.48;4.53;;;15.20;99.90;;;;;;5089578;28;20040;-67
2022/05/22 06:44:28;;;;;;;13.20;4.35;;;15.20;99.90;;;;;;5090837;28;20112;-67
2022/05/22 06:46:54;;;;;;;13.52;4.25;;;15.20;99.90;;;;;;5090988;28;20130;-67
2022/05/22 06:49:19;;;;;;;14.68;4.80;;;15.30;99.90;;;;;;5072340;28;20079;-67
2022/05/22 06:51:47;;;;;;;12.18;4.00;;;15.20;99.90;;;;;;5090777;28;20515;-68
2022/05/22 06:54:12;;;;;;;17.02;4.90;;;15.20;99.90;;;;;;5090711;28;20085;-67
2022/05/22 06:56:38;;;;;;;12.40;4.85;;;15.30;99.90;;;;;;5090719;28;20043;-67
2022/05/22 06:59:03;;;;;;;12.40;4.10;;;15.50;99.90;;;;;;5089986;28;20052;-67
2022/05/22 07:01:29;;;;;;;14.10;4.15;;;15.60;99.90;;;;;;5090836;28;20040;-68
2022/05/22 07:03:55;;;;;;;15.07;4.65;;;15.70;99.90;;;;;;5090742;28;20401;-67
2022/05/22 07:06:20;;;;;;;12.90;4.43;;;15.60;99.90;;;;;;5090690;28;20043;-67
2022/05/22 07:08:46;;;;;;;12.20;4.35;;;15.70;99.90;;;;;;5090484;28;20492;-67
2022/05/22 07:13:55;;;;;;;16.25;4.63;;;16.00;99.90;;;;;;5090738;28;20404;-67
2022/05/22 07:16:21;;;;;;;14.18;3.97;;;16.10;99.90;;;;;;5089267;28;20040;-67
2022/05/22 07:18:46;;;;;;;19.90;4.18;;;16.00;99.90;;;;;;5090446;28;20039;-67
2022/05/22 07:21:12;;;;;;;11.02;3.63;;;16.20;99.90;;;;;;5090440;28;20032;-67
2022/05/22 07:23:38;;;;;;;9.20;3.85;;;16.30;99.90;;;;;;5090444;28;20048;-67
2022/05/22 07:26:05;;;;;;;11.95;4.43;;;16.30;99.90;;;;;;5090460;28;20420;-67
2022/05/22 07:28:31;;;;;;;16.42;4.82;;;16.20;99.90;;;;;;5090377;28;20040;-67
2022/05/22 07:30:57;;;;;;;18.33;4.05;;;16.30;99.90;;;;;;5091615;28;20036;-67
2022/05/22 07:33:23;;;;;;;13.45;4.07;;;16.50;99.90;;;;;;5094254;28;20040;-68
2022/05/22 07:35:56;;;;;;;12.45;4.22;;;16.60;99.90;;;;;;5094114;28;20040;-67
2022/05/22 07:38:23;;;;;;;11.95;4.30;;;16.60;99.90;;;;;;5093909;28;20097;-68
2022/05/22 07:40:49;;;;;;;8.00;3.33;;;16.60;99.90;;;;;;5094044;28;20122;-67
2022/05/22 07:43:16;;;;;;;12.60;3.97;;;16.70;99.90;;;;;;5094149;28;20048;-67
2022/05/22 07:45:42;;;;;;;8.93;4.07;;;16.40;99.90;;;;;;5094035;28;20051;-67
2022/05/22 07:48:08;;;;;;;16.13;4.32;;;16.30;99.90;;;;;;5093944;28;20043;-67
2022/05/22 07:50:34;;;;;;;12.25;4.00;;;16.30;99.90;;;;;;5093570;28;20688;-67
2022/05/22 07:53:00;;;;;;;13.02;3.72;;;16.60;99.90;;;;;;5093554;28;20040;-67
2022/05/22 07:55:26;;;;;;;11.32;4.75;;;16.70;99.90;;;;;;5092405;28;20078;-67
2022/05/22 07:57:51;;;;;;;7.55;3.38;;;16.70;99.90;;;;;;5093842;28;20071;-67
2022/05/22 08:00:20;;;;;;;10.98;2.85;;;16.80;99.90;;;;;;5093197;28;20032;-68
2022/05/22 08:02:47;;;;;;;10.38;2.83;;;16.90;99.90;;;;;;5093647;28;20043;-67
2022/05/22 08:05:17;;;;;;;10.50;3.58;;;17.00;99.90;;;;;;5093565;28;20083;-67
2022/05/22 08:07:43;;;;;;;9.90;2.88;;;17.00;99.90;;;;;;5093364;28;20040;-67
2022/05/22 08:10:09;;;;;;;9.77;2.58;;;17.10;99.90;;;;;;5093340;28;20128;-67
2022/05/22 08:12:41;;;;;;;12.32;2.83;;;17.30;99.90;;;;;;5093442;28;20080;-68
2022/05/22 08:15:08;;;;;;;12.50;3.20;;;17.20;99.90;;;;;;5093406;28;20032;-67
2022/05/22 08:17:36;;;;;;;10.35;2.83;;;17.00;99.90;;;;;;5093423;28;20115;-68
2022/05/22 08:20:08;;;;;;;10.88;2.83;;;17.10;99.90;;;;;;5092964;28;20040;-68
2022/05/22 08:22:34;;;;;;;11.10;2.70;;;17.30;99.90;;;;;;5093092;28;20036;-68
2022/05/22 08:25:03;;;;;;;11.05;2.95;;;17.40;99.90;;;;;;5093614;28;20057;-68
2022/05/22 08:27:30;;;;;;;12.68;3.17;;;17.50;99.90;;;;;;5093374;28;20082;-67
2022/05/22 08:29:56;;;;;;;9.00;2.97;;;17.60;99.90;;;;;;5092689;28;20451;-67
2022/05/22 08:32:22;;;;;;;10.65;2.65;;;17.50;99.90;;;;;;5093176;28;20032;-68
2022/05/22 08:34:48;;;;;;;12.20;3.20;;;17.60;99.90;;;;;;5092842;28;20492;-68
2022/05/22 08:37:13;;;;;;;12.85;3.17;;;17.60;99.90;;;;;;5093492;28;20044;-67
2022/05/22 08:39:39;;;;;;;7.38;2.67;;;17.60;99.90;;;;;;5092663;28;20047;-67
2022/05/22 08:42:13;;;;;;;10.27;3.10;;;17.80;99.90;;;;;;5091972;28;20036;-67
2022/05/22 08:44:39;;;;;;;7.55;2.63;;;17.90;99.90;;;;;;5092953;28;20091;-67
2022/05/22 08:47:20;;;;;;;8.38;3.28;;;17.80;99.90;;;;;;5092812;28;20105;-68
2022/05/22 08:50:01;;;;;;;9.10;2.85;;;17.70;99.90;;;;;;5092552;28;20142;-67
2022/05/22 08:52:34;;;;;;;11.25;3.20;;;17.80;99.90;;;;;;5092656;28;20075;-67
2022/05/22 08:55:12;;;;;;;12.15;3.13;;;17.90;99.90;;;;;;5092714;28;20048;-67
2022/05/22 09:00:51;;;;;;;10.07;2.17;;;18.20;99.90;;;;;;5090758;28;20047;-67
2022/05/22 09:03:24;;;;;;;10.70;2.60;;;18.40;99.90;;;;;;5092558;28;20040;-68
2022/05/22 09:05:59;;;;;;;7.47;2.63;;;18.40;99.90;;;;;;5092340;28;20044;-67
2022/05/22 09:08:42;;;;;;;9.65;3.15;;;18.40;99.90;;;;;;5092326;28;20052;-68
2022/05/22 09:11:19;;;;;;;9.70;2.28;;;18.40;99.90;;;;;;5092354;28;20093;-67
2022/05/22 09:14:05;;;;;;;11.30;2.63;;;18.70;99.90;;;;;;5092066;28;20044;-67
2022/05/22 09:16:39;;;;;;;8.82;2.47;;;18.50;99.90;;;;;;5092155;28;20111;-68
2022/05/22 09:19:21;;;;;;;9.45;2.95;;;18.60;99.90;;;;;;5091991;28;20036;-68
2022/05/22 09:22:10;;;;;;;10.30;2.50;;;18.70;99.90;;;;;;5092150;28;20040;-68
2022/05/22 09:25:01;;;;;;;14.05;2.95;;;18.60;99.90;;;;;;5092000;28;20446;-67
2022/05/22 09:27:42;;;;;;;6.90;2.25;;;18.60;99.90;;;;;;5092211;28;20055;-67
2022/05/22 09:30:13;;;;;;;8.02;2.30;;;18.50;99.90;;;;;;5090361;28;20571;-67
2022/05/22 09:32:51;;;;;;;10.02;2.25;;;18.40;99.90;;;;;;5091911;28;20123;-67
2022/05/22 09:35:33;;;;;;;12.32;2.47;;;18.50;99.90;;;;;;5091769;28;20043;-68
2022/05/22 09:38:32;;;;;;;11.68;2.22;;;18.40;99.90;;;;;;5092026;28;20078;-67
2022/05/22 09:41:22;;;;;;;9.15;2.30;;;18.30;99.90;;;;;;5091568;28;20491;-67
2022/05/22 09:44:20;;;;;;;11.63;2.10;;;18.10;99.90;;;;;;5091607;28;20095;-68
2022/05/22 09:47:09;;;;;;;7.70;2.30;;;18.10;99.90;;;;;;5091678;28;20075;-68
2022/05/22 09:49:47;;;;;;;7.05;2.28;;;18.10;99.90;;;;;;5091198;28;20449;-67
2022/05/22 09:52:55;;;;;;;8.77;2.58;;;18.10;99.90;;;;;;5091409;28;20075;-67
2022/05/22 09:55:42;;;;;;;12.88;2.10;;;18.10;99.90;;;;;;5091273;28;20622;-68
2022/05/22 09:58:15;;;;;;;15.00;2.67;;;18.10;99.90;;;;;;5091320;28;20085;-67
2022/05/22 10:01:23;;;;;;;7.85;2.00;;;18.10;99.90;;;;;;5090950;28;20048;-67
2022/05/22 10:04:11;;;;;;;11.52;2.20;;;18.20;99.90;;;;;;5028593;28;20060;-67
2022/05/22 10:06:43;;;;;;;11.98;2.40;;;18.10;99.90;;;;;;5090447;28;20056;-68
2022/05/22 10:09:30;;;;;;;10.18;2.17;;;18.00;99.90;;;;;;5091087;28;20109;-67
2022/05/22 10:12:23;;;;;;;8.35;1.88;;;17.90;99.90;;;;;;5091263;28;20039;-68
2022/05/22 10:14:54;;;;;;;12.48;2.00;;;17.90;99.90;;;;;;5091053;28;20048;-67
2022/05/22 10:17:54;;;;;;;8.10;2.27;;;17.90;99.90;;;;;;5089850;28;20060;-68
2022/05/22 10:21:02;;;;;;;9.20;2.40;;;17.90;99.90;;;;;;5059070;28;20773;-67
2022/05/22 10:23:53;;;;;;;10.43;2.60;;;18.00;99.90;;;;;;5091295;28;20048;-68
2022/05/22 10:26:33;;;;;;;6.17;1.87;;;18.10;99.90;;;;;;5091226;28;20039;-67
2022/05/22 10:29:11;;;;;;;6.55;1.70;;;18.20;99.90;;;;;;5090774;28;20698;-68
2022/05/22 10:31:48;;;;;;;10.75;2.10;;;18.20;99.90;;;;;;5090941;28;20051;-68
2022/05/22 10:34:47;;;;;;;8.68;1.98;;;18.30;99.90;;;;;;5089400;28;20123;-67
2022/05/22 10:37:34;;;;;;;6.50;2.22;;;18.40;99.90;;;;;;5091064;28;20032;-68
2022/05/22 10:40:04;;;;;;;7.07;1.77;;;18.40;99.90;;;;;;5090671;28;20043;-67
2022/05/22 10:42:47;;;;;;;8.27;1.88;;;18.30;99.90;;;;;;5091322;28;20040;-67
2022/05/22 10:45:33;;;;;;;6.53;1.80;;;18.50;99.90;;;;;;5090995;28;20044;-67
2022/05/22 10:48:23;;;;;;;10.02;1.95;;;18.70;99.90;;;;;;5090711;28;20139;-68
2022/05/22 10:51:08;;;;;;;8.65;1.85;;;18.80;99.90;;;;;;5090479;28;20510;-67
2022/05/22 10:53:45;;;;;;;10.02;1.95;;;18.90;99.90;;;;;;5090839;28;20171;-68
2022/05/22 10:56:14;;;;;;;6.78;1.52;;;18.90;99.90;;;;;;5090757;28;20036;-67
2022/05/22 10:58:51;;;;;;;4.88;1.60;;;19.10;99.90;;;;;;5090281;28;20044;-67
2022/05/22 11:01:19;;;;;;;8.45;1.70;;;19.10;99.90;;;;;;5090443;28;20496;-67
2022/05/22 11:03:45;;;;;;;5.18;1.45;;;19.30;99.90;;;;;;5090594;28;20059;-68
2022/05/22 11:06:22;;;;;;;9.10;2.50;;;19.20;99.90;;;;;;5092187;28;20385;-67
2022/05/22 11:08:51;;;;;;;6.00;1.58;;;19.30;99.90;;;;;;5094382;28;20050;-67
2022/05/22 11:11:20;;;;;;;10.25;1.88;;;19.20;99.90;;;;;;5094693;28;20039;-67
2022/05/22 11:13:46;;;;;;;6.53;1.73;;;19.20;99.90;;;;;;5094662;28;20032;-67
2022/05/22 11:16:39;;;;;;;5.53;1.60;;;19.20;99.90;;;;;;5076281;28;20047;-68
2022/05/22 11:19:05;;;;;;;7.20;1.67;;;19.10;99.90;;;;;;5091596;28;20084;-67
2022/05/22 11:21:59;;;;;;;9.93;1.63;;;19.10;99.90;;;;;;5094321;28;20078;-68
2022/05/22 11:24:54;;;;;;;8.35;1.55;;;19.00;99.90;;;;;;5094188;28;20043;-68
2022/05/22 11:27:57;;;;;;;5.95;1.70;;;19.20;99.90;;;;;;5094300;28;20046;-68
2022/05/22 11:30:31;;;;;;;8.13;2.22;;;19.20;99.90;;;;;;5094022;28;20040;-68
2022/05/22 11:33:37;;;;;;;8.27;1.65;;;19.20;99.90;;;;;;5092752;28;20051;-68
2022/05/22 11:36:23;;;;;;;4.95;1.58;;;19.30;99.90;;;;;;5094063;28;20036;-67
2022/05/22 11:39:09;;;;;;;5.90;1.90;;;19.30;99.90;;;;;;5094031;28;20281;-68
2022/05/22 11:41:52;;;;;;;9.85;1.40;;;19.10;99.90;;;;;;5094182;28;20044;-68
2022/05/22 11:44:23;;;;;;;;;;;19.10;99.90;;;;;;5094492;28;20043;-67
2022/05/22 11:47:10;;;;;;;9.88;1.77;;;19.00;99.90;;;;;;5094131;28;19920;-68
2022/05/22 11:49:58;;;;;;;8.35;1.73;;;18.90;99.90;;;;;;5093641;28;20044;-67
2022/05/22 11:52:56;;;;;;;6.18;1.83;;;19.00;99.90;;;;;;5092703;28;20123;-67
2022/05/22 11:55:29;;;;;;;5.82;1.42;;;19.00;99.90;;;;;;5094093;28;20082;-67
2022/05/22 11:58:15;;;;;;;4.65;1.58;;;19.00;99.90;;;;;;5093753;28;20518;-68
2022/05/22 12:00:46;;;;;;;4.70;1.80;;;19.00;99.90;;;;;;5092056;28;20054;-68
2022/05/22 12:03:20;;;;;;;8.93;1.57;;;19.00;99.90;;;;;;5092393;28;20063;-68
2022/05/22 12:05:52;;;;;;;7.88;1.50;;;19.00;99.90;;;;;;5093707;28;20075;-67
2022/05/22 12:08:30;;;;;;;4.07;1.20;;;18.90;99.90;;;;;;5093658;28;20054;-67
2022/05/22 12:11:18;;;;;;;4.85;1.60;;;18.90;99.90;;;;;;5093515;28;20048;-68
2022/05/22 12:14:22;;;;;;;6.25;1.50;;;18.90;99.90;;;;;;5093373;28;20048;-67
2022/05/22 12:17:01;;;;;;;5.20;1.70;;;18.90;99.90;;;;;;5010241;28;20430;-67
2022/05/22 12:19:40;;;;;;;6.05;1.40;;;19.00;99.90;;;;;;5010416;28;20498;-68
2022/05/22 12:22:15;;;;;;;8.40;1.48;;;19.10;99.90;;;;;;5011006;28;20096;-67
2022/05/22 12:24:43;;;;;;;5.88;1.75;;;19.20;99.90;;;;;;5010916;28;20133;-68
2022/05/22 12:27:25;;;;;;;5.28;1.40;;;19.30;99.90;;;;;;5010845;28;20054;-68
2022/05/22 12:30:09;;;;;;;5.15;1.30;;;19.30;99.90;;;;;;5010421;28;20108;-68
2022/05/22 12:32:54;;;;;;;9.25;1.80;;;19.30;99.90;;;;;;5010604;28;20056;-68
2022/05/22 12:35:20;;;;;;;5.75;1.83;;;19.30;99.90;;;;;;5010618;28;20041;-68
2022/05/22 12:37:51;;;;;;;6.75;2.33;;;19.40;99.90;;;;;;5010544;28;20041;-68
2022/05/22 12:40:26;;;;;;;7.57;1.70;;;19.50;99.90;;;;;;5010163;28;20125;-67
2022/05/22 12:42:55;;;;;;;7.30;2.05;;;19.40;99.90;;;;;;5010388;28;20486;-67
2022/05/22 12:45:24;;;;;;;5.80;1.67;;;19.40;99.90;;;;;;5010311;28;20057;-68
2022/05/22 12:47:52;;;;;;;7.75;1.60;;;19.40;99.90;;;;;;5010275;28;20514;-67
2022/05/22 12:50:31;;;;;;;4.22;1.73;;;19.50;99.90;;;;;;5009967;28;20046;-68
2022/05/22 12:52:56;;;;;;;5.10;1.55;;;19.70;99.90;;;;;;5070077;28;20040;-68
2022/05/22 12:55:34;;;;;;;6.68;1.65;;;19.70;99.90;;;;;;5092807;28;20439;-68
2022/05/22 12:58:03;;;;;;;5.55;1.60;;;19.70;99.90;;;;;;5092579;28;20504;-68
2022/05/22 13:00:45;;;;;;;7.13;1.48;;;19.60;99.90;;;;;;5092089;28;20043;-68
2022/05/22 13:03:14;;;;;;;3.90;1.65;;;19.70;99.90;;;;;;5092583;28;20150;-68
2022/05/22 13:05:41;;;;;;;7.82;1.67;;;19.80;99.90;;;;;;5092245;28;20144;-67
2022/05/22 13:08:42;;;;;;;6.15;2.63;;;19.80;99.90;;;;;;5092279;28;20172;-68
2022/05/22 13:11:15;;;;;;;7.72;1.40;;;20.00;99.90;;;;;;5091813;28;20056;-68
2022/05/22 13:13:52;;;;;;;7.53;1.65;;;20.00;99.90;;;;;;5092232;28;20036;-68
2022/05/22 13:16:27;;;;;;;4.55;1.48;;;20.00;99.90;;;;;;5092467;28;20047;-68
2022/05/22 13:18:54;;;;;;;5.32;1.30;;;20.00;99.90;;;;;;5092102;28;20364;-68
2022/05/22 13:21:35;;;;;;;6.30;1.40;;;20.00;99.90;;;;;;5092235;28;20075;-67
2022/05/22 13:24:30;;;;;;;5.95;1.70;;;20.00;99.90;;;;;;5092133;28;20385;-68
2022/05/22 13:27:04;;;;;;;6.72;1.60;;;20.00;99.90;;;;;;5088991;28;20091;-68
2022/05/22 13:29:50;;;;;;;6.00;1.95;;;20.10;99.90;;;;;;5091250;28;20123;-68